createdAt,value
2019-03-10T00:02:06.574Z,74.03
2019-03-10T00:04:36.220Z,74.07
2019-03-10T00:07:05.960Z,74.00
2019-03-10T00:09:35.868Z,73.93
2019-03-10T00:12:05.693Z,74.00
2019-03-10T00:14:35.437Z,74.06
2019-03-10T00:17:05.182Z,74.17
2019-03-10T00:19:36.708Z,74.23
2019-03-10T00:22:06.970Z,74.41
2019-03-10T00:24:36.746Z,74.50
2019-03-10T00:27:06.477Z,74.56
2019-03-10T00:29:36.164Z,74.73
2019-03-10T00:32:05.829Z,74.88
2019-03-10T00:34:35.487Z,74.75
2019-03-10T00:37:05.307Z,74.85
2019-03-10T00:39:54.360Z,75.05
2019-03-10T00:43:09.975Z,75.06
2019-03-10T00:46:39.030Z,75.10
2019-03-10T00:49:32.529Z,75.25
2019-03-10T00:52:06.045Z,75.35
2019-03-10T00:54:35.700Z,75.45
2019-03-10T00:57:05.614Z,75.58
2019-03-10T00:59:35.440Z,75.59
2019-03-10T01:02:05.207Z,75.51
2019-03-10T01:04:35.207Z,75.45
2019-03-10T01:07:05.236Z,75.44
2019-03-10T01:09:35.173Z,75.35
2019-03-10T01:12:04.928Z,75.42
2019-03-10T01:14:35.054Z,75.34
2019-03-10T01:17:05.319Z,75.10
2019-03-10T01:19:36.649Z,74.99
2019-03-10T01:22:06.408Z,74.57
2019-03-10T01:24:36.133Z,74.35
2019-03-10T01:27:05.822Z,73.82
2019-03-10T01:29:35.502Z,73.95
2019-03-10T01:32:46.158Z,73.75
2019-03-10T01:35:18.980Z,73.82
2019-03-10T01:37:48.656Z,73.80
2019-03-10T01:40:18.315Z,73.57
2019-03-10T01:42:47.983Z,73.80
2019-03-10T01:45:17.909Z,73.96
2019-03-10T01:47:47.579Z,73.93
2019-03-10T01:50:17.247Z,73.86
2019-03-10T01:52:47.168Z,73.79
2019-03-10T01:55:16.897Z,73.92
2019-03-10T01:57:46.564Z,74.04
2019-03-10T02:00:17.036Z,73.98
2019-03-10T02:02:47.025Z,74.02
2019-03-10T02:05:16.763Z,73.90
2019-03-10T02:07:46.416Z,74.05
2019-03-10T02:10:17.063Z,74.20
2019-03-10T02:12:46.721Z,74.04
2019-03-10T02:15:16.619Z,74.00
2019-03-10T02:17:46.364Z,73.75
2019-03-10T02:20:17.393Z,73.82
2019-03-10T02:22:47.286Z,73.87
2019-03-10T02:25:16.949Z,73.69
2019-03-10T02:27:46.608Z,73.67
2019-03-10T02:30:18.525Z,73.64
2019-03-10T02:32:48.238Z,73.60
2019-03-10T02:35:17.927Z,73.56
2019-03-10T02:37:47.940Z,73.72
2019-03-10T02:40:17.639Z,73.77
2019-03-10T02:42:47.540Z,73.69
2019-03-10T02:45:17.215Z,73.57
2019-03-10T02:47:46.878Z,73.83
2019-03-10T02:50:16.852Z,73.64
2019-03-10T02:52:46.551Z,73.69
2019-03-10T02:55:16.212Z,73.83
2019-03-10T02:57:46.120Z,73.97
2019-03-10T03:00:16.183Z,73.88
2019-03-10T03:02:46.103Z,73.93
2019-03-10T03:05:15.764Z,74.02
2019-03-10T03:07:45.446Z,74.14
2019-03-10T03:10:15.931Z,74.15
2019-03-10T03:12:45.643Z,74.25
2019-03-10T03:15:16.709Z,74.34
2019-03-10T03:17:46.451Z,74.39
2019-03-10T03:20:17.708Z,74.42
2019-03-10T03:22:47.347Z,74.49
2019-03-10T03:25:17.026Z,74.62
2019-03-10T03:27:46.695Z,74.61
2019-03-10T03:30:16.882Z,74.63
2019-03-10T03:32:46.719Z,74.55
2019-03-10T03:35:46.764Z,74.42
2019-03-10T03:38:17.887Z,74.48
2019-03-10T03:40:50.953Z,74.46
2019-03-10T03:43:20.605Z,74.56
2019-03-10T03:45:50.279Z,74.61
2019-03-10T03:48:20.027Z,74.58
2019-03-10T03:50:50.020Z,74.57
2019-03-10T03:53:20.691Z,74.56
2019-03-10T03:55:50.342Z,74.60
2019-03-10T03:58:20.262Z,74.62
2019-03-10T04:00:53.770Z,74.52
2019-03-10T04:03:23.431Z,74.45
2019-03-10T04:05:53.131Z,74.43
2019-03-10T04:08:22.797Z,74.25
2019-03-10T04:10:52.460Z,74.17
2019-03-10T04:13:22.413Z,74.18
2019-03-10T04:15:52.358Z,74.33
2019-03-10T04:18:22.027Z,74.44
2019-03-10T04:20:51.698Z,74.67
2019-03-10T04:23:22.320Z,74.57
2019-03-10T04:25:51.999Z,74.79
2019-03-10T04:28:21.683Z,74.94
2019-03-10T04:30:51.340Z,74.74
2019-03-10T04:33:21.008Z,74.53
2019-03-10T04:35:50.689Z,73.56
2019-03-10T04:38:20.360Z,73.28
2019-03-10T04:40:50.250Z,73.37
2019-03-10T04:43:19.914Z,71.98
2019-03-10T04:45:49.576Z,71.88
2019-03-10T04:48:19.239Z,71.66
2019-03-10T04:50:48.911Z,71.50
2019-03-10T04:53:18.810Z,71.75
2019-03-10T04:56:16.653Z,71.90
2019-03-10T04:58:49.333Z,72.13
2019-03-10T05:01:19.448Z,72.28
2019-03-10T05:03:49.095Z,72.28
2019-03-10T05:06:18.845Z,72.79
2019-03-10T05:08:49.697Z,72.79
2019-03-10T05:11:19.600Z,72.80
2019-03-10T05:13:49.815Z,73.12
2019-03-10T05:16:19.474Z,73.49
2019-03-10T05:21:36.536Z,74.09
2019-03-10T05:24:13.315Z,74.44
2019-03-10T05:26:42.990Z,74.81
2019-03-10T05:29:13.632Z,75.14
2019-03-10T05:31:43.298Z,75.45
2019-03-10T05:34:12.975Z,76.05
2019-03-10T05:36:42.631Z,76.54
2019-03-10T05:39:12.549Z,77.28
2019-03-10T05:41:42.217Z,77.89
2019-03-10T05:44:13.061Z,78.31
2019-03-10T05:46:42.711Z,78.42
2019-03-10T05:49:12.395Z,78.57
2019-03-10T05:51:42.070Z,78.67
2019-03-10T05:54:11.727Z,79.05
2019-03-10T05:56:41.382Z,79.38
2019-03-10T05:59:11.058Z,79.64
2019-03-10T06:01:40.731Z,79.91
2019-03-10T06:04:10.404Z,80.04
2019-03-10T06:06:40.080Z,80.15
2019-03-10T06:09:09.823Z,80.48
2019-03-10T06:11:39.475Z,80.79
2019-03-10T06:14:09.194Z,81.11
2019-03-10T06:16:38.862Z,81.34
2019-03-10T06:19:08.594Z,81.34
2019-03-10T06:21:38.343Z,81.56
2019-03-10T06:24:08.006Z,81.62
2019-03-10T06:26:37.654Z,81.51
2019-03-10T06:29:07.335Z,81.70
2019-03-10T06:31:36.985Z,81.84
2019-03-10T06:34:06.640Z,81.83
2019-03-10T06:36:36.290Z,81.84
2019-03-10T06:39:07.149Z,81.85
2019-03-10T06:41:36.898Z,81.93
2019-03-10T06:44:06.477Z,82.14
2019-03-10T06:46:36.137Z,82.49
2019-03-10T06:49:05.811Z,82.90
2019-03-10T06:51:35.466Z,82.98
2019-03-10T06:54:05.317Z,82.93
2019-03-10T06:56:35.054Z,82.92
2019-03-10T06:59:04.939Z,82.98
2019-03-10T07:01:34.610Z,82.82
2019-03-10T07:04:05.165Z,82.57
2019-03-10T07:06:35.600Z,82.56
2019-03-10T07:09:05.945Z,82.38
2019-03-10T07:11:35.950Z,82.41
2019-03-10T07:14:05.581Z,82.52
2019-03-10T07:16:35.279Z,83.09
2019-03-10T07:19:04.937Z,83.31
2019-03-10T07:21:34.613Z,83.61
2019-03-10T07:24:04.893Z,83.85
2019-03-10T07:26:34.806Z,84.06
2019-03-10T07:29:27.099Z,84.02
2019-03-10T07:32:14.175Z,83.97
2019-03-10T07:35:08.873Z,83.89
2019-03-10T07:37:55.978Z,83.66
2019-03-10T07:40:50.467Z,83.73
2019-03-10T07:43:25.039Z,83.70
2019-03-10T07:46:22.680Z,83.65
2019-03-10T07:49:08.597Z,83.71
2019-03-10T07:51:43.644Z,83.67
2019-03-10T07:54:22.738Z,83.69
2019-03-10T07:57:02.229Z,83.79
2019-03-10T07:59:49.647Z,83.91
2019-03-10T08:02:37.237Z,83.98
2019-03-10T08:05:20.233Z,83.99
2019-03-10T08:07:54.944Z,83.95
2019-03-10T08:10:44.765Z,83.80
2019-03-10T08:13:28.577Z,83.89
2019-03-10T08:16:20.037Z,83.81
2019-03-10T08:19:08.728Z,83.87
2019-03-10T08:22:06.550Z,83.83
2019-03-10T08:24:54.330Z,83.95
2019-03-10T08:28:01.853Z,84.14
2019-03-10T08:30:47.236Z,84.24
2019-03-10T08:33:30.102Z,84.15
2019-03-10T08:36:17.261Z,84.32
2019-03-10T08:38:54.585Z,84.22
2019-03-10T08:41:41.167Z,84.38
2019-03-10T08:44:32.923Z,84.41
2019-03-10T08:47:08.234Z,84.47
2019-03-10T08:49:46.662Z,84.59
2019-03-10T08:52:20.579Z,84.57
2019-03-10T08:55:15.178Z,84.56
2019-03-10T08:58:02.671Z,84.50
2019-03-10T09:00:44.841Z,84.44
2019-03-10T09:03:21.284Z,84.39
2019-03-10T09:06:12.732Z,84.63
2019-03-10T09:08:58.667Z,84.87
2019-03-10T09:11:46.089Z,85.07
2019-03-10T09:14:33.086Z,85.26
2019-03-10T09:17:10.135Z,85.15
2019-03-10T09:19:54.675Z,85.17
2019-03-10T09:22:37.141Z,85.40
2019-03-10T09:25:24.593Z,85.46
2019-03-10T09:28:19.460Z,85.47
2019-03-10T09:31:10.895Z,85.08
2019-03-10T09:33:48.732Z,85.70
2019-03-10T09:36:49.726Z,85.74
2019-03-10T09:39:37.077Z,85.79
2019-03-10T09:42:21.695Z,85.96
2019-03-10T09:45:12.416Z,85.83
2019-03-10T09:47:53.002Z,86.08
2019-03-10T09:50:48.454Z,86.32
2019-03-10T09:53:35.157Z,86.39
2019-03-10T09:56:23.002Z,86.48
2019-03-10T09:59:14.595Z,86.63
2019-03-10T10:01:59.468Z,86.71
2019-03-10T10:04:46.854Z,86.57
2019-03-10T10:07:37.195Z,86.42
2019-03-10T10:10:17.431Z,86.60
2019-03-10T10:12:59.821Z,86.39
2019-03-10T10:15:48.331Z,86.12
2019-03-10T10:18:29.319Z,85.87
2019-03-10T10:21:09.901Z,86.00
2019-03-10T10:23:49.263Z,86.12
2019-03-10T10:26:50.109Z,85.74
2019-03-10T10:29:36.664Z,86.06
2019-03-10T10:32:12.792Z,86.02
2019-03-10T10:34:51.642Z,85.98
2019-03-10T10:37:26.556Z,86.28
2019-03-10T10:40:14.159Z,86.15
2019-03-10T10:43:08.866Z,86.49
2019-03-10T10:45:56.189Z,86.84
2019-03-10T10:48:50.697Z,87.00
2019-03-10T10:51:38.051Z,87.00
2019-03-10T10:54:18.504Z,87.01
2019-03-10T10:57:07.280Z,87.18
2019-03-10T10:59:57.376Z,87.38
2019-03-10T11:02:45.060Z,87.52
2019-03-10T11:05:37.821Z,87.54
2019-03-10T11:08:24.012Z,87.41
2019-03-10T11:11:11.189Z,87.50
2019-03-10T11:13:58.531Z,87.67
2019-03-10T11:16:38.264Z,87.74
2019-03-10T11:19:18.322Z,87.72
2019-03-10T11:21:57.538Z,87.74
2019-03-10T11:24:33.110Z,87.63
2019-03-10T11:27:21.787Z,87.48
2019-03-10T11:30:04.045Z,87.34
2019-03-10T11:32:52.702Z,87.11
2019-03-10T11:35:49.177Z,87.07
2019-03-10T11:38:37.884Z,87.23
2019-03-10T11:41:38.660Z,87.34
2019-03-10T11:44:19.993Z,87.42
2019-03-10T11:46:59.149Z,87.39
2019-03-10T11:49:34.805Z,87.54
2019-03-10T11:52:13.369Z,87.86
2019-03-10T11:55:07.232Z,88.01
2019-03-10T11:57:48.355Z,87.69
2019-03-10T12:00:35.508Z,87.40
2019-03-10T12:03:18.820Z,87.14
2019-03-10T12:06:00.814Z,87.13
2019-03-10T12:08:55.580Z,87.21
2019-03-10T12:11:25.318Z,87.53
2019-03-10T12:13:54.997Z,87.83
2019-03-10T12:16:24.662Z,87.86
2019-03-10T12:18:54.322Z,87.86
2019-03-10T12:21:25.061Z,88.22
2019-03-10T12:23:54.718Z,88.31
2019-03-10T12:26:24.391Z,88.41
2019-03-10T12:28:54.274Z,88.54
2019-03-10T12:31:23.931Z,88.67
2019-03-10T12:33:53.585Z,89.03
2019-03-10T12:36:23.327Z,89.02
2019-03-10T12:38:53.063Z,88.92
2019-03-10T12:41:22.747Z,89.01
2019-03-10T12:43:52.650Z,89.11
2019-03-10T12:46:22.301Z,89.05
2019-03-10T12:48:51.951Z,88.99
2019-03-10T12:51:21.636Z,88.84
2019-03-10T12:53:51.281Z,88.58
2019-03-10T12:56:21.233Z,88.49
2019-03-10T12:58:50.895Z,88.39
2019-03-10T13:01:20.538Z,88.33
2019-03-10T13:03:58.408Z,88.37
2019-03-10T13:06:21.634Z,88.39
2019-03-10T13:08:52.354Z,88.54
2019-03-10T13:11:22.087Z,88.55
2019-03-10T13:13:52.003Z,88.51
2019-03-10T13:16:21.651Z,88.34
2019-03-10T13:18:51.335Z,88.38
2019-03-10T13:21:21.054Z,88.57
2019-03-10T13:23:50.705Z,88.42
2019-03-10T13:26:20.375Z,88.36
2019-03-10T13:28:50.412Z,88.22
2019-03-10T13:31:20.077Z,88.17
2019-03-10T13:33:50.019Z,88.15
2019-03-10T13:36:19.770Z,88.13
2019-03-10T13:38:49.441Z,88.07
2019-03-10T13:41:19.140Z,88.74
2019-03-10T13:43:49.049Z,91.12
2019-03-10T13:46:30.017Z,93.28
2019-03-10T13:49:01.097Z,92.82
2019-03-10T13:51:30.907Z,91.93
2019-03-10T13:54:05.349Z,90.75
2019-03-10T13:56:35.183Z,90.32
2019-03-10T13:59:05.320Z,88.16
2019-03-10T14:01:35.227Z,86.45
2019-03-10T14:04:05.145Z,85.02
2019-03-10T14:06:35.795Z,82.78
2019-03-10T14:09:08.133Z,82.00
2019-03-10T14:11:38.136Z,81.76
2019-03-10T14:14:07.784Z,81.42
2019-03-10T14:16:37.459Z,80.08
2019-03-10T14:19:07.348Z,81.04
2019-03-10T14:21:36.999Z,80.32
2019-03-10T14:24:06.835Z,81.43
2019-03-10T14:26:36.495Z,82.15
2019-03-10T14:29:06.158Z,82.56
2019-03-10T14:31:35.822Z,83.96
2019-03-10T14:34:05.549Z,84.76
2019-03-10T14:36:35.478Z,85.29
2019-03-10T14:39:07.170Z,85.44
2019-03-10T14:41:38.683Z,86.08
2019-03-10T14:44:08.382Z,86.21
2019-03-10T14:46:38.043Z,86.75
2019-03-10T14:49:07.875Z,86.99
2019-03-10T14:51:42.952Z,86.75
2019-03-10T14:54:12.602Z,87.10
2019-03-10T14:56:42.524Z,87.35
2019-03-10T14:59:12.222Z,87.68
2019-03-10T15:01:42.929Z,87.98
2019-03-10T15:04:12.597Z,87.96
2019-03-10T15:06:42.270Z,85.68
2019-03-10T15:09:12.949Z,84.26
2019-03-10T15:11:42.857Z,82.52
2019-03-10T15:14:12.523Z,82.97
2019-03-10T15:16:42.261Z,83.23
2019-03-10T15:19:12.258Z,83.84
2019-03-10T15:21:41.986Z,83.79
2019-03-10T15:24:11.648Z,83.87
2019-03-10T15:26:45.513Z,84.20
2019-03-10T15:29:12.695Z,84.42
2019-03-10T15:31:42.591Z,84.29
2019-03-10T15:34:12.330Z,84.71
2019-03-10T15:36:42.011Z,84.70
2019-03-10T15:39:12.643Z,85.06
2019-03-10T15:41:42.364Z,85.42
2019-03-10T15:44:12.005Z,85.58
2019-03-10T15:46:41.665Z,85.92
2019-03-10T15:49:11.334Z,85.90
2019-03-10T15:51:41.249Z,85.39
2019-03-10T15:54:10.908Z,85.76
2019-03-10T15:56:40.826Z,86.45
2019-03-10T15:59:10.528Z,86.51
2019-03-10T16:01:40.129Z,86.09
2019-03-10T16:04:17.699Z,86.61
2019-03-10T16:06:48.042Z,86.77
2019-03-10T16:09:17.797Z,86.81
2019-03-10T16:11:47.479Z,87.31
2019-03-10T16:14:17.142Z,87.61
2019-03-10T16:16:46.809Z,88.00
2019-03-10T16:19:16.474Z,88.25
2019-03-10T16:21:46.148Z,88.35
2019-03-10T16:24:15.824Z,88.65
2019-03-10T16:26:45.491Z,88.74
2019-03-10T16:31:54.262Z,88.37
2019-03-10T16:34:23.932Z,88.14
2019-03-10T16:36:53.582Z,88.06
2019-03-10T16:39:23.342Z,87.96
2019-03-10T16:41:53.645Z,88.01
2019-03-10T16:44:23.324Z,87.93
2019-03-10T16:46:52.983Z,87.79
2019-03-10T16:49:22.640Z,87.69
2019-03-10T16:51:52.314Z,87.79
2019-03-10T16:54:21.991Z,88.08
2019-03-10T16:56:51.655Z,87.73
2019-03-10T16:59:21.607Z,87.51
2019-03-10T17:01:51.399Z,87.66
2019-03-10T17:04:21.067Z,87.68
2019-03-10T17:06:50.730Z,87.63
2019-03-10T17:09:20.733Z,87.75
2019-03-10T17:11:50.494Z,87.83
2019-03-10T17:14:20.151Z,87.69
2019-03-10T17:16:49.831Z,87.98
2019-03-10T17:19:19.521Z,87.93
2019-03-10T17:21:49.462Z,88.02
2019-03-10T17:24:19.119Z,88.05
2019-03-10T17:26:49.461Z,88.14
2019-03-10T17:29:19.115Z,88.23
2019-03-10T17:31:48.936Z,88.25
2019-03-10T17:34:18.618Z,88.36
2019-03-10T17:36:48.272Z,88.39
2019-03-10T17:39:18.924Z,88.44
2019-03-10T17:41:48.852Z,88.49
2019-03-10T17:44:18.509Z,88.56
2019-03-10T17:46:48.189Z,88.84
2019-03-10T17:49:17.851Z,88.72
2019-03-10T17:51:47.517Z,88.79
2019-03-10T17:54:17.272Z,88.72
2019-03-10T17:56:47.904Z,88.85
2019-03-10T17:59:17.851Z,88.85
2019-03-10T18:01:48.508Z,88.84
2019-03-10T18:04:18.324Z,88.91
2019-03-10T18:06:48.074Z,88.92
2019-03-10T18:09:17.754Z,88.66
2019-03-10T18:11:47.431Z,88.73
2019-03-10T18:14:17.084Z,88.68
2019-03-10T18:16:46.761Z,88.56
2019-03-10T18:19:16.425Z,88.53
2019-03-10T18:21:46.097Z,88.46
2019-03-10T18:24:15.759Z,88.36
2019-03-10T18:26:45.422Z,88.41
2019-03-10T18:29:15.361Z,88.36
2019-03-10T18:31:45.025Z,88.39
2019-03-10T18:34:14.962Z,88.31
2019-03-10T18:36:44.624Z,88.48
2019-03-10T18:39:14.374Z,88.45
2019-03-10T18:41:44.125Z,88.36
2019-03-10T18:44:13.863Z,88.59
2019-03-10T18:46:43.671Z,88.32
2019-03-10T18:49:13.343Z,88.33
2019-03-10T18:51:43.022Z,88.55
2019-03-10T18:54:12.933Z,88.46
2019-03-10T18:56:42.595Z,88.22
2019-03-10T18:59:12.374Z,87.94
2019-03-10T19:01:42.107Z,88.19
2019-03-10T19:04:11.771Z,88.00
2019-03-10T19:06:41.447Z,88.09
2019-03-10T19:09:11.110Z,87.84
2019-03-10T19:11:41.103Z,87.03
2019-03-10T19:14:10.757Z,87.15
2019-03-10T19:16:40.686Z,86.90
2019-03-10T19:19:10.347Z,86.99
2019-03-10T19:21:40.012Z,87.09
2019-03-10T19:24:09.828Z,86.93
2019-03-10T19:26:39.561Z,86.84
2019-03-10T19:29:09.241Z,86.73
2019-03-10T19:31:38.907Z,86.63
2019-03-10T19:34:08.575Z,86.49
2019-03-10T19:36:38.481Z,86.30
2019-03-10T19:39:08.236Z,86.32
2019-03-10T19:41:39.761Z,86.14
2019-03-10T19:44:09.429Z,86.08
2019-03-10T19:46:39.149Z,86.26
2019-03-10T19:49:10.899Z,86.27
2019-03-10T19:51:41.663Z,86.29
2019-03-10T19:54:11.579Z,86.31
2019-03-10T19:56:41.340Z,86.41
2019-03-10T19:59:11.004Z,86.29
2019-03-10T20:01:40.810Z,86.37
2019-03-10T20:04:11.186Z,86.39
2019-03-10T20:06:40.870Z,86.34
2019-03-10T20:09:10.532Z,86.39
2019-03-10T20:11:40.885Z,86.24
2019-03-10T20:14:10.577Z,86.28
2019-03-10T20:16:40.327Z,86.12
2019-03-10T20:19:10.990Z,86.29
2019-03-10T20:21:40.675Z,86.42
2019-03-10T20:24:10.361Z,86.61
2019-03-10T20:26:40.345Z,86.71
2019-03-10T20:29:10.088Z,86.97
2019-03-10T20:31:40.024Z,86.96
2019-03-10T20:34:09.779Z,86.94
2019-03-10T20:36:40.670Z,86.92
2019-03-10T20:39:10.354Z,86.94
2019-03-10T20:41:40.220Z,87.22
2019-03-10T20:44:09.959Z,87.36
2019-03-10T20:46:39.622Z,87.49
2019-03-10T20:49:10.230Z,87.66
2019-03-10T20:51:39.959Z,87.75
2019-03-10T20:54:09.744Z,87.82
2019-03-10T20:56:39.403Z,87.84
2019-03-10T20:59:09.238Z,87.84
2019-03-10T21:01:38.920Z,87.78
2019-03-10T21:04:08.677Z,87.75
2019-03-10T21:06:38.597Z,87.78
2019-03-10T21:09:08.593Z,87.36
2019-03-10T21:11:39.321Z,87.32
2019-03-10T21:14:09.011Z,87.29
2019-03-10T21:16:38.677Z,87.15
2019-03-10T21:19:08.684Z,86.74
2019-03-10T21:21:38.837Z,86.76
2019-03-10T21:24:08.777Z,86.63
2019-03-10T21:26:38.437Z,86.56
2019-03-10T21:29:08.103Z,86.26
2019-03-10T21:31:38.510Z,85.88
2019-03-10T21:34:08.162Z,86.01
2019-03-10T21:36:39.051Z,85.84
2019-03-10T21:39:08.746Z,85.44
2019-03-10T21:41:38.785Z,85.31
2019-03-10T21:44:08.739Z,85.37
2019-03-10T21:46:38.407Z,85.74
2019-03-10T21:49:08.068Z,85.70
2019-03-10T21:51:37.772Z,85.54
2019-03-10T21:54:07.428Z,85.51
2019-03-10T21:56:37.117Z,85.03
2019-03-10T21:59:06.774Z,85.07
2019-03-10T22:01:36.446Z,85.28
2019-03-10T22:04:06.358Z,84.78
2019-03-10T22:06:36.031Z,84.83
2019-03-10T22:09:06.737Z,84.71
2019-03-10T22:11:38.028Z,85.03
2019-03-10T22:14:07.697Z,85.04
2019-03-10T22:16:37.381Z,85.07
2019-03-10T22:19:07.012Z,85.10
2019-03-10T22:21:37.077Z,85.02
2019-03-10T22:24:06.699Z,84.92
2019-03-10T22:26:36.364Z,84.98
2019-03-10T22:29:06.065Z,84.97
2019-03-10T22:31:35.791Z,84.91
2019-03-10T22:34:05.595Z,84.94
2019-03-10T22:36:35.286Z,84.98
2019-03-10T22:39:07.340Z,84.91
2019-03-10T22:41:37.160Z,84.80
2019-03-10T22:44:06.823Z,84.83
2019-03-10T22:46:36.562Z,84.69
2019-03-10T22:49:06.242Z,84.64
2019-03-10T22:51:35.896Z,84.71
2019-03-10T22:54:05.582Z,84.84
2019-03-10T22:56:35.245Z,84.83
2019-03-10T22:59:05.195Z,84.98
2019-03-10T23:01:34.897Z,84.79
2019-03-10T23:04:04.787Z,84.84
2019-03-10T23:06:34.444Z,85.00
2019-03-10T23:09:06.378Z,85.07
2019-03-10T23:11:37.665Z,85.09
2019-03-10T23:14:07.402Z,85.04
2019-03-10T23:16:37.328Z,85.03
2019-03-10T23:19:06.984Z,84.75
2019-03-10T23:21:37.615Z,84.80
2019-03-10T23:24:07.293Z,84.88
2019-03-10T23:26:37.190Z,84.91
2019-03-10T23:29:06.880Z,84.86
2019-03-10T23:31:36.541Z,84.76
2019-03-10T23:34:06.262Z,84.65
2019-03-10T23:36:35.943Z,84.52
2019-03-10T23:39:06.600Z,84.54
2019-03-10T23:41:37.852Z,84.47
2019-03-10T23:44:07.520Z,84.37
2019-03-10T23:46:37.339Z,84.33
2019-03-10T23:49:07.000Z,84.23
2019-03-10T23:51:36.746Z,84.01
2019-03-10T23:54:06.408Z,84.03
2019-03-10T23:56:36.052Z,83.92
2019-03-10T23:59:05.735Z,83.64
